Hindhead, United Kingdom
Current Conditions -  °F | °C
As of 9:20 PM on Wednesday 17 Dec 2014 (Local Time) from EGLF Reporting Station
Scattered Clouds Scattered Clouds  
Wind Chill: 52°   Ceiling: Unl
Heat Index: 52°   Visibility: 6mi
Dew Point: 52°   Wind: 18mph
Humidity: 100%   Direction: 250°WSW
Pressure: 29.8"   Gusts: NA
Location:  51.11°N, 0.73°W
Report Text: EGLF 172120Z 25016KT 9999 SCT008 11/11 Q1009
Loading
Personal Weather Stations






























Interactive Weather Map New forecast layout! Learn more

10-Day Weather Forecast

Advertisements
Track Severe Weather on mobile